LXJ230 KDEN-KPUB
Flight info
| Callsign | LXJ230 |
|---|---|
| Flight time | 0h 34m |
| Altitude | 23000 |
| Route | PIKES3 PUB |
| Aircraft | C25C/M-BGS/L |
Departure
| Time | 2026-04-25 23:26 |
|---|---|
| Airport | Denver International Airport (KDEN) |
Arrival
| Time | 2026-04-26 00:01 |
|---|---|
| Airport | Pueblo Memorial Airport (KPUB) |
| Time | Latitude | Longitude | Altitude | Speed | Heading |
|---|---|---|---|---|---|
| 2026-04-25 23:07 | 39.83881 | -104.66522 | 5408 ft | 0 kts | 234° |
| 2026-04-25 23:16 | 39.83872 | -104.66527 | 5401 ft | 5 kts | 190° |
| 2026-04-25 23:16 | 39.83821 | -104.66530 | 5414 ft | 8 kts | 166° |
| 2026-04-25 23:17 | 39.83795 | -104.66494 | 5409 ft | 4 kts | 91° |
| 2026-04-25 23:17 | 39.83795 | -104.66491 | 5409 ft | 0 kts | 83° |
| 2026-04-25 23:18 | 39.83796 | -104.66487 | 5411 ft | 1 kts | 66° |
| 2026-04-25 23:18 | 39.83819 | -104.66465 | 5407 ft | 9 kts | 25° |
| 2026-04-25 23:19 | 39.83897 | -104.66430 | 5414 ft | 14 kts | 15° |
| 2026-04-25 23:19 | 39.83970 | -104.66403 | 5405 ft | 11 kts | 27° |
| 2026-04-25 23:19 | 39.84019 | -104.66328 | 5414 ft | 11 kts | 80° |
| 2026-04-25 23:19 | 39.84048 | -104.66263 | 5412 ft | 10 kts | 18° |
| 2026-04-25 23:20 | 39.84133 | -104.66255 | 5409 ft | 16 kts | 2° |
| 2026-04-25 23:20 | 39.84273 | -104.66254 | 5415 ft | 23 kts | 360° |
| 2026-04-25 23:20 | 39.84450 | -104.66253 | 5405 ft | 27 kts | 360° |
| 2026-04-25 23:20 | 39.84636 | -104.66249 | 5408 ft | 26 kts | 1° |
| 2026-04-25 23:21 | 39.84824 | -104.66246 | 5395 ft | 27 kts | 0° |
| 2026-04-25 23:21 | 39.85010 | -104.66245 | 5397 ft | 26 kts | 359° |
| 2026-04-25 23:21 | 39.85187 | -104.66244 | 5387 ft | 24 kts | 2° |
| 2026-04-25 23:21 | 39.85333 | -104.66241 | 5387 ft | 18 kts | 0° |
| 2026-04-25 23:22 | 39.85456 | -104.66238 | 5392 ft | 17 kts | 1° |
| 2026-04-25 23:22 | 39.85571 | -104.66238 | 5391 ft | 16 kts | 359° |
| 2026-04-25 23:22 | 39.85682 | -104.66237 | 5390 ft | 15 kts | 1° |
| 2026-04-25 23:23 | 39.85896 | -104.66233 | 5386 ft | 16 kts | 0° |
| 2026-04-25 23:23 | 39.86011 | -104.66232 | 5383 ft | 16 kts | 359° |
| 2026-04-25 23:23 | 39.86133 | -104.66231 | 5379 ft | 19 kts | 0° |
| 2026-04-25 23:23 | 39.86272 | -104.66230 | 5372 ft | 21 kts | 359° |
| 2026-04-25 23:24 | 39.86421 | -104.66229 | 5375 ft | 20 kts | 2° |
| 2026-04-25 23:24 | 39.86552 | -104.66226 | 5375 ft | 19 kts | 0° |
| 2026-04-25 23:24 | 39.86699 | -104.66224 | 5374 ft | 23 kts | 0° |
| 2026-04-25 23:24 | 39.86881 | -104.66223 | 5369 ft | 28 kts | 1° |
| 2026-04-25 23:25 | 39.87085 | -104.66219 | 5363 ft | 31 kts | 1° |
| 2026-04-25 23:25 | 39.87303 | -104.66217 | 5359 ft | 32 kts | 1° |
| 2026-04-25 23:25 | 39.87523 | -104.66220 | 5357 ft | 31 kts | 357° |
| 2026-04-25 23:25 | 39.87723 | -104.66215 | 5355 ft | 20 kts | 9° |
| 2026-04-25 23:26 | 39.87755 | -104.66087 | 5351 ft | 23 kts | 90° |
| 2026-04-25 23:26 | 39.87761 | -104.65554 | 5357 ft | 106 kts | 85° |
| 2026-04-25 23:26 | 39.87742 | -104.64388 | 5789 ft | 148 kts | 91° |
| 2026-04-25 23:26 | 39.87601 | -104.62834 | 6519 ft | 195 kts | 103° |
| 2026-04-25 23:27 | 39.87155 | -104.61066 | 7667 ft | 213 kts | 110° |
| 2026-04-25 23:27 | 39.86615 | -104.59050 | 8065 ft | 271 kts | 111° |
| 2026-04-25 23:27 | 39.85959 | -104.56543 | 8637 ft | 309 kts | 111° |
| 2026-04-25 23:27 | 39.85292 | -104.53795 | 9629 ft | 327 kts | 111° |
| 2026-04-25 23:28 | 39.84579 | -104.50980 | 10457 ft | 325 kts | 111° |
| 2026-04-25 23:28 | 39.83864 | -104.48164 | 10795 ft | 333 kts | 111° |
| 2026-04-25 23:28 | 39.83121 | -104.45272 | 10849 ft | 337 kts | 111° |
| 2026-04-25 23:28 | 39.82268 | -104.42463 | 10906 ft | 332 kts | 122° |
| 2026-04-25 23:29 | 39.80654 | -104.40393 | 10951 ft | 327 kts | 153° |
| 2026-04-25 23:29 | 39.78512 | -104.39457 | 11008 ft | 325 kts | 173° |
| 2026-04-25 23:29 | 39.76255 | -104.39415 | 11083 ft | 325 kts | 186° |
| 2026-04-25 23:29 | 39.74008 | -104.39685 | 11282 ft | 322 kts | 186° |
| 2026-04-25 23:30 | 39.71843 | -104.39844 | 12005 ft | 303 kts | 184° |
| 2026-04-25 23:30 | 39.69778 | -104.39844 | 12913 ft | 299 kts | 183° |
| 2026-04-25 23:30 | 39.67678 | -104.39873 | 13896 ft | 305 kts | 185° |
| 2026-04-25 23:30 | 39.65537 | -104.39919 | 14822 ft | 309 kts | 185° |
| 2026-04-25 23:31 | 39.63382 | -104.39984 | 15764 ft | 312 kts | 185° |
| 2026-04-25 23:31 | 39.61188 | -104.40026 | 16696 ft | 316 kts | 185° |
| 2026-04-25 23:31 | 39.58976 | -104.40081 | 17633 ft | 320 kts | 186° |
| 2026-04-25 23:31 | 39.56733 | -104.40124 | 18524 ft | 324 kts | 186° |
| 2026-04-25 23:32 | 39.54463 | -104.40184 | 19340 ft | 328 kts | 187° |
| 2026-04-25 23:32 | 39.52165 | -104.40228 | 20185 ft | 332 kts | 187° |
| 2026-04-25 23:32 | 39.49865 | -104.40288 | 21030 ft | 337 kts | 187° |
| 2026-04-25 23:32 | 39.47504 | -104.40334 | 21898 ft | 342 kts | 187° |
| 2026-04-25 23:33 | 39.45114 | -104.40394 | 22754 ft | 346 kts | 187° |
| 2026-04-25 23:33 | 39.42621 | -104.40461 | 22934 ft | 371 kts | 187° |
| 2026-04-25 23:33 | 39.39944 | -104.40537 | 22943 ft | 396 kts | 186° |
| 2026-04-25 23:33 | 39.37113 | -104.40571 | 22932 ft | 415 kts | 186° |
| 2026-04-25 23:34 | 39.34191 | -104.40630 | 22921 ft | 408 kts | 187° |
| 2026-04-25 23:34 | 39.31493 | -104.40664 | 22922 ft | 370 kts | 188° |
| 2026-04-25 23:34 | 39.29013 | -104.40730 | 22904 ft | 343 kts | 188° |
| 2026-04-25 23:34 | 39.26730 | -104.40786 | 22909 ft | 322 kts | 189° |
| 2026-04-25 23:35 | 39.24547 | -104.40843 | 22913 ft | 305 kts | 189° |
| 2026-04-25 23:35 | 39.22479 | -104.40882 | 22920 ft | 290 kts | 190° |
| 2026-04-25 23:35 | 39.20468 | -104.40940 | 22918 ft | 292 kts | 190° |
| 2026-04-25 23:35 | 39.18413 | -104.40993 | 22929 ft | 299 kts | 189° |
| 2026-04-25 23:36 | 39.17001 | -104.41028 | 22935 ft | 302 kts | 189° |
| 2026-04-25 23:36 | 39.14875 | -104.41067 | 22944 ft | 308 kts | 189° |
| 2026-04-25 23:36 | 39.12706 | -104.41119 | 22934 ft | 319 kts | 188° |
| 2026-04-25 23:36 | 39.10432 | -104.41174 | 22969 ft | 336 kts | 188° |
| 2026-04-25 23:37 | 39.08067 | -104.41228 | 22985 ft | 352 kts | 188° |
| 2026-04-25 23:37 | 39.05556 | -104.41277 | 22996 ft | 368 kts | 187° |
| 2026-04-25 23:37 | 39.02947 | -104.41340 | 23003 ft | 382 kts | 187° |
| 2026-04-25 23:37 | 39.00254 | -104.41390 | 23013 ft | 390 kts | 187° |
| 2026-04-25 23:38 | 38.97513 | -104.41455 | 22927 ft | 395 kts | 187° |
| 2026-04-25 23:38 | 38.94774 | -104.41505 | 22930 ft | 392 kts | 187° |
| 2026-04-25 23:38 | 38.92077 | -104.41561 | 22930 ft | 383 kts | 187° |
| 2026-04-25 23:38 | 38.89429 | -104.41627 | 22911 ft | 378 kts | 187° |
| 2026-04-25 23:39 | 38.86803 | -104.41682 | 22838 ft | 376 kts | 187° |
| 2026-04-25 23:39 | 38.84207 | -104.41745 | 22675 ft | 370 kts | 187° |
| 2026-04-25 23:39 | 38.81637 | -104.41796 | 22388 ft | 368 kts | 187° |
| 2026-04-25 23:39 | 38.79084 | -104.41859 | 22113 ft | 365 kts | 187° |
| 2026-04-25 23:40 | 38.76545 | -104.41910 | 21840 ft | 363 kts | 187° |
| 2026-04-25 23:40 | 38.74053 | -104.41946 | 21551 ft | 363 kts | 184° |
| 2026-04-25 23:40 | 38.71528 | -104.41669 | 21287 ft | 364 kts | 180° |
| 2026-04-25 23:40 | 38.69013 | -104.41404 | 21026 ft | 359 kts | 183° |
| 2026-04-25 23:41 | 38.66541 | -104.41447 | 20702 ft | 351 kts | 190° |
| 2026-04-25 23:41 | 38.64132 | -104.41678 | 20419 ft | 346 kts | 189° |
| 2026-04-25 23:41 | 38.61721 | -104.41791 | 20125 ft | 345 kts | 187° |
| 2026-04-25 23:41 | 38.59323 | -104.41843 | 19834 ft | 342 kts | 187° |
| 2026-04-25 23:42 | 38.56953 | -104.41898 | 19534 ft | 340 kts | 185° |
| 2026-04-25 23:42 | 38.54612 | -104.41340 | 19239 ft | 348 kts | 167° |
| 2026-04-25 23:42 | 38.52377 | -104.40278 | 18961 ft | 344 kts | 165° |
| 2026-04-25 23:42 | 38.50156 | -104.39252 | 18675 ft | 335 kts | 167° |
| 2026-04-25 23:43 | 38.47946 | -104.38468 | 18396 ft | 325 kts | 172° |
| 2026-04-25 23:43 | 38.45764 | -104.37782 | 18110 ft | 321 kts | 171° |
| 2026-04-25 23:43 | 38.43625 | -104.37024 | 17792 ft | 317 kts | 169° |
| 2026-04-25 23:43 | 38.41521 | -104.36258 | 17458 ft | 311 kts | 169° |
| 2026-04-25 23:44 | 38.39457 | -104.35517 | 17094 ft | 306 kts | 170° |
| 2026-04-25 23:44 | 38.37400 | -104.34799 | 16691 ft | 305 kts | 169° |
| 2026-04-25 23:44 | 38.35355 | -104.34076 | 16282 ft | 305 kts | 169° |
| 2026-04-25 23:44 | 38.33336 | -104.33354 | 15883 ft | 304 kts | 169° |
| 2026-04-25 23:45 | 38.31302 | -104.32643 | 15484 ft | 303 kts | 169° |
| 2026-04-25 23:45 | 38.29270 | -104.31920 | 15091 ft | 303 kts | 169° |
| 2026-04-25 23:45 | 38.27267 | -104.31216 | 14702 ft | 292 kts | 169° |
| 2026-04-25 23:45 | 38.25354 | -104.30534 | 14312 ft | 279 kts | 169° |
| 2026-04-25 23:46 | 38.23518 | -104.29891 | 13913 ft | 267 kts | 169° |
| 2026-04-25 23:46 | 38.21772 | -104.29268 | 13515 ft | 254 kts | 169° |
| 2026-04-25 23:46 | 38.20093 | -104.28667 | 12937 ft | 250 kts | 168° |
| 2026-04-25 23:46 | 38.18445 | -104.28041 | 12448 ft | 243 kts | 167° |
| 2026-04-25 23:47 | 38.16849 | -104.27425 | 11987 ft | 236 kts | 168° |
| 2026-04-25 23:47 | 38.15292 | -104.26830 | 11540 ft | 230 kts | 167° |
| 2026-04-25 23:47 | 38.13818 | -104.26229 | 11172 ft | 222 kts | 165° |
| 2026-04-25 23:47 | 38.12399 | -104.25610 | 10880 ft | 212 kts | 166° |
| 2026-04-25 23:48 | 38.10991 | -104.25053 | 10400 ft | 213 kts | 166° |
| 2026-04-25 23:48 | 38.09578 | -104.24529 | 9911 ft | 211 kts | 167° |
| 2026-04-25 23:48 | 38.08098 | -104.24130 | 9056 ft | 223 kts | 175° |
| 2026-04-25 23:48 | 38.06558 | -104.24348 | 8515 ft | 222 kts | 195° |
| 2026-04-25 23:49 | 38.05240 | -104.25302 | 8201 ft | 216 kts | 215° |
| 2026-04-25 23:49 | 38.04293 | -104.26750 | 7936 ft | 214 kts | 236° |
| 2026-04-25 23:49 | 38.03951 | -104.28601 | 7649 ft | 220 kts | 265° |
| 2026-04-25 23:49 | 38.03935 | -104.30479 | 7490 ft | 208 kts | 261° |
| 2026-04-25 23:50 | 38.03839 | -104.32296 | 7323 ft | 200 kts | 262° |
| 2026-04-25 23:50 | 38.03769 | -104.33983 | 7318 ft | 191 kts | 263° |
| 2026-04-25 23:50 | 38.03741 | -104.35638 | 7321 ft | 185 kts | 261° |
| 2026-04-25 23:50 | 38.03548 | -104.37222 | 7314 ft | 179 kts | 255° |
| 2026-04-25 23:51 | 38.03314 | -104.38798 | 7329 ft | 185 kts | 257° |
| 2026-04-25 23:51 | 38.03122 | -104.40435 | 7342 ft | 191 kts | 258° |
| 2026-04-25 23:51 | 38.02927 | -104.42111 | 7420 ft | 192 kts | 256° |
| 2026-04-25 23:51 | 38.02788 | -104.43820 | 7440 ft | 197 kts | 260° |
| 2026-04-25 23:52 | 38.02726 | -104.45570 | 7440 ft | 202 kts | 263° |
| 2026-04-25 23:52 | 38.02677 | -104.47357 | 7446 ft | 204 kts | 264° |
| 2026-04-25 23:52 | 38.02662 | -104.49168 | 7444 ft | 207 kts | 265° |
| 2026-04-25 23:52 | 38.02611 | -104.50996 | 7435 ft | 207 kts | 259° |
| 2026-04-25 23:53 | 38.02696 | -104.52848 | 7436 ft | 214 kts | 275° |
| 2026-04-25 23:53 | 38.02960 | -104.54701 | 7418 ft | 215 kts | 283° |
| 2026-04-25 23:53 | 38.03392 | -104.56501 | 7431 ft | 218 kts | 285° |
| 2026-04-25 23:53 | 38.03969 | -104.58315 | 7448 ft | 225 kts | 290° |
| 2026-04-25 23:54 | 38.04651 | -104.60136 | 7444 ft | 232 kts | 296° |
| 2026-04-25 23:54 | 38.05450 | -104.61932 | 7445 ft | 234 kts | 300° |
| 2026-04-25 23:54 | 38.06342 | -104.63671 | 7447 ft | 236 kts | 305° |
| 2026-04-25 23:54 | 38.07510 | -104.65102 | 7449 ft | 236 kts | 336° |
| 2026-04-25 23:55 | 38.09106 | -104.65538 | 7454 ft | 235 kts | 355° |
| 2026-04-25 23:55 | 38.10717 | -104.65795 | 7462 ft | 237 kts | 356° |
| 2026-04-25 23:55 | 38.12363 | -104.66035 | 7407 ft | 240 kts | 357° |
| 2026-04-25 23:55 | 38.14042 | -104.66257 | 7285 ft | 245 kts | 357° |
| 2026-04-25 23:56 | 38.15759 | -104.66460 | 7161 ft | 248 kts | 357° |
| 2026-04-25 23:56 | 38.17489 | -104.66698 | 6980 ft | 251 kts | 356° |
| 2026-04-25 23:56 | 38.19228 | -104.66923 | 6758 ft | 250 kts | 360° |
| 2026-04-25 23:56 | 38.20941 | -104.66988 | 6611 ft | 243 kts | 3° |
| 2026-04-25 23:57 | 38.22617 | -104.67043 | 6466 ft | 238 kts | 2° |
| 2026-04-25 23:57 | 38.24234 | -104.67024 | 6441 ft | 224 kts | 13° |
| 2026-04-25 23:57 | 38.25542 | -104.66244 | 6411 ft | 205 kts | 49° |
| 2026-04-25 23:57 | 38.26152 | -104.64711 | 6381 ft | 190 kts | 84° |
| 2026-04-25 23:58 | 38.26340 | -104.63066 | 6343 ft | 189 kts | 78° |
| 2026-04-25 23:58 | 38.26843 | -104.61575 | 6334 ft | 175 kts | 66° |
| 2026-04-25 23:58 | 38.27438 | -104.60260 | 6167 ft | 168 kts | 65° |
| 2026-04-25 23:58 | 38.27926 | -104.58954 | 5961 ft | 162 kts | 72° |
| 2026-04-25 23:59 | 38.28261 | -104.57598 | 5825 ft | 157 kts | 78° |
| 2026-04-25 23:59 | 38.28507 | -104.56281 | 5709 ft | 151 kts | 78° |
| 2026-04-25 23:59 | 38.28752 | -104.55108 | 5531 ft | 128 kts | 79° |
| 2026-04-25 23:59 | 38.28944 | -104.54105 | 5301 ft | 108 kts | 83° |
| 2026-04-26 00:00 | 38.28989 | -104.53214 | 5134 ft | 97 kts | 93° |
| 2026-04-26 00:00 | 38.28987 | -104.52379 | 4981 ft | 95 kts | 95° |
| 2026-04-26 00:00 | 38.28997 | -104.51542 | 4788 ft | 97 kts | 91° |
| 2026-04-26 00:00 | 38.29018 | -104.50672 | 4709 ft | 90 kts | 92° |
| 2026-04-26 00:01 | 38.29031 | -104.50082 | 4677 ft | 35 kts | 89° |
| 2026-04-26 00:01 | 38.29039 | -104.49767 | 4656 ft | 36 kts | 86° |